createdAt,value
2018-02-08T00:06:43.100Z,-2.70
2018-02-08T00:11:46.270Z,-2.70
2018-02-08T00:16:49.338Z,-2.70
2018-02-08T00:21:52.435Z,-2.80
2018-02-08T00:26:55.931Z,-2.80
2018-02-08T00:31:59.451Z,-2.90
2018-02-08T00:37:02.551Z,-2.90
2018-02-08T00:42:05.688Z,-2.90
2018-02-08T00:47:08.780Z,-2.90
2018-02-08T00:52:11.911Z,-3.00
2018-02-08T00:57:15.008Z,-3.00
2018-02-08T01:07:22.564Z,-3.00
2018-02-08T01:12:25.691Z,-3.10
2018-02-08T01:17:28.929Z,-3.10
2018-02-08T01:22:32.043Z,-3.20
2018-02-08T01:27:35.552Z,-3.20
2018-02-08T01:32:39.464Z,-3.30
2018-02-08T01:37:42.544Z,-3.30
2018-02-08T01:42:46.402Z,-3.30
2018-02-08T01:47:50.665Z,-3.30
2018-02-08T01:52:54.874Z,-3.30
2018-02-08T01:57:58.355Z,-3.30
2018-02-08T02:03:01.504Z,-3.30
2018-02-08T02:08:05.367Z,-3.40
2018-02-08T02:13:08.495Z,-3.50
2018-02-08T02:18:11.583Z,-3.50
2018-02-08T02:23:16.492Z,-3.60
2018-02-08T02:28:20.379Z,-3.60
2018-02-08T02:33:23.473Z,-3.60
2018-02-08T02:38:26.612Z,-3.70
2018-02-08T02:43:29.711Z,-3.70
2018-02-08T02:48:33.591Z,-3.70
2018-02-08T02:53:36.687Z,-3.70
2018-02-08T02:58:40.216Z,-3.80
2018-02-08T03:03:43.308Z,-3.80
2018-02-08T03:08:46.443Z,-3.80
2018-02-08T03:13:49.931Z,-3.90
2018-02-08T03:18:53.020Z,-3.90
2018-02-08T03:23:56.547Z,-3.80
2018-02-08T03:29:00.033Z,-3.80
2018-02-08T03:39:08.009Z,-3.90
2018-02-08T03:49:15.587Z,-3.90
2018-02-08T03:54:18.695Z,-3.90
2018-02-08T04:04:27.775Z,-4.00
2018-02-08T04:14:36.876Z,-4.00
2018-02-08T04:19:39.989Z,-4.00
2018-02-08T04:24:43.120Z,-4.00
2018-02-08T04:34:52.216Z,-4.10
2018-02-08T04:40:13.163Z,-4.10
2018-02-08T04:55:36.843Z,-4.20
2018-02-08T05:00:41.492Z,-4.20
2018-02-08T05:05:44.598Z,-4.20
2018-02-08T05:15:52.573Z,-4.30
2018-02-08T05:20:55.703Z,-4.30
2018-02-08T05:25:59.568Z,-4.30
2018-02-08T05:31:03.468Z,-4.40
2018-02-08T05:36:06.568Z,-4.40
2018-02-08T05:41:09.716Z,-4.40
2018-02-08T05:46:13.575Z,-4.40
2018-02-08T05:56:22.648Z,-4.40
2018-02-08T06:01:26.564Z,-4.40
2018-02-08T06:06:29.656Z,-4.40
2018-02-08T06:11:32.796Z,-4.50
2018-02-08T06:16:36.664Z,-4.50
2018-02-08T06:21:39.771Z,-4.50
2018-02-08T06:26:44.014Z,-4.50
2018-02-08T06:31:47.904Z,-4.60
2018-02-08T06:36:52.136Z,-4.60
2018-02-08T06:41:56.036Z,-4.70
2018-02-08T06:47:00.652Z,-4.70
2018-02-08T06:52:04.551Z,-4.80
2018-02-08T07:02:13.273Z,-4.80
2018-02-08T07:07:16.764Z,-4.80
2018-02-08T07:22:29.964Z,-4.60
2018-02-08T07:27:33.064Z,-4.60
2018-02-08T07:32:36.176Z,-4.50
2018-02-08T07:37:39.316Z,-4.50
2018-02-08T07:42:42.434Z,-4.40
2018-02-08T07:47:45.600Z,-4.40
2018-02-08T07:57:53.598Z,-3.20
2018-02-08T08:02:56.695Z,-2.50
2018-02-08T08:07:59.849Z,-2.20
2018-02-08T08:13:03.709Z,-1.90
2018-02-08T08:18:07.980Z,-2.00
2018-02-08T08:28:15.554Z,-1.40
2018-02-08T08:38:25.295Z,0.10
2018-02-08T08:43:29.179Z,0.40
2018-02-08T08:48:32.595Z,0.40
2018-02-08T08:53:36.461Z,0.50
2018-02-08T09:08:49.644Z,0.80
2018-02-08T09:13:52.764Z,0.40
2018-02-08T09:18:55.863Z,0.10
2018-02-08T09:23:59.416Z,0.00
2018-02-08T09:29:03.271Z,-0.10
2018-02-08T09:34:06.403Z,0.00
2018-02-08T09:39:09.504Z,0.00
2018-02-08T09:44:13.356Z,0.10
2018-02-08T09:54:21.709Z,0.10
2018-02-08T09:59:25.708Z,0.30
2018-02-08T10:04:28.835Z,0.30
2018-02-08T10:09:32.316Z,0.20
2018-02-08T10:14:35.395Z,0.00
2018-02-08T10:19:39.257Z,0.10
2018-02-08T10:29:47.224Z,0.10
2018-02-08T10:34:50.667Z,0.10
2018-02-08T10:44:59.331Z,0.00
2018-02-08T10:50:02.464Z,0.10
2018-02-08T10:55:06.275Z,0.10
2018-02-08T11:00:09.404Z,0.10
2018-02-08T11:15:22.184Z,0.00
2018-02-08T11:20:26.084Z,0.10
2018-02-08T11:25:29.180Z,0.30
2018-02-08T11:30:33.447Z,0.50
2018-02-08T11:35:36.551Z,0.70
2018-02-08T11:40:39.671Z,0.70
2018-02-08T11:45:42.756Z,0.70
2018-02-08T12:00:55.144Z,0.60
2018-02-08T12:05:58.285Z,0.70
2018-02-08T12:11:01.382Z,0.70
2018-02-08T12:16:06.015Z,0.80
2018-02-08T12:36:24.011Z,0.90
2018-02-08T12:41:27.856Z,0.90
2018-02-08T12:46:32.084Z,0.90
2018-02-08T12:51:35.972Z,0.90
2018-02-08T12:56:39.097Z,1.00
2018-02-08T13:06:47.428Z,1.00
2018-02-08T13:11:51.726Z,1.00
2018-02-08T13:22:00.597Z,1.00
2018-02-08T13:32:08.994Z,1.10
2018-02-08T13:42:19.807Z,1.10
2018-02-08T13:53:07.488Z,1.20
2018-02-08T14:03:56.292Z,1.30
2018-02-08T14:09:00.524Z,1.20
2018-02-08T14:24:12.873Z,1.30
2018-02-08T14:29:15.955Z,1.30
2018-02-08T14:34:19.245Z,1.30
2018-02-08T14:39:23.139Z,1.30
2018-02-08T14:44:26.212Z,1.30
2018-02-08T14:49:30.104Z,1.30
2018-02-08T14:59:38.392Z,1.30
2018-02-08T15:04:42.228Z,1.30
2018-02-08T15:09:46.812Z,1.20
2018-02-08T15:14:50.304Z,1.20
2018-02-08T15:19:53.380Z,1.10
2018-02-08T15:40:09.760Z,1.00
2018-02-08T15:55:22.504Z,0.80
2018-02-08T16:00:25.584Z,0.70
2018-02-08T16:05:30.668Z,0.60
2018-02-08T16:10:33.778Z,0.50
2018-02-08T16:20:42.067Z,0.40
2018-02-08T16:35:54.457Z,0.40
2018-02-08T16:40:57.541Z,0.20
2018-02-08T16:46:01.400Z,0.20
2018-02-08T16:51:05.631Z,0.00
2018-02-08T16:56:09.492Z,-0.10
2018-02-08T17:01:12.579Z,-0.30
2018-02-08T17:16:24.959Z,-0.60
2018-02-08T17:31:38.054Z,-0.70
2018-02-08T17:36:41.136Z,-0.90
2018-02-08T17:41:44.224Z,-1.00
2018-02-08T17:46:47.712Z,-1.00
2018-02-08T17:51:52.277Z,-1.20
2018-02-08T17:56:56.556Z,-1.30
2018-02-08T18:07:04.857Z,-1.40
2018-02-08T18:12:09.093Z,-1.50
2018-02-08T18:22:18.114Z,-1.60
2018-02-08T18:27:21.205Z,-1.70
2018-02-08T18:32:24.291Z,-1.60
2018-02-08T18:42:33.030Z,-1.70
2018-02-08T18:47:36.064Z,-1.80
2018-02-08T18:52:40.655Z,-1.80
2018-02-08T18:57:45.599Z,-1.90
2018-02-08T19:02:49.090Z,-1.90
2018-02-08T19:07:52.186Z,-1.90
2018-02-08T19:12:56.403Z,-2.00
2018-02-08T19:17:59.900Z,-2.00
2018-02-08T19:23:04.165Z,-2.10
2018-02-08T19:28:07.680Z,-2.10
2018-02-08T19:33:12.226Z,-2.20
2018-02-08T19:38:15.735Z,-2.30
2018-02-08T19:43:19.959Z,-2.30
2018-02-08T19:48:23.821Z,-2.30
2018-02-08T19:53:26.908Z,-2.30
2018-02-08T20:03:36.357Z,-2.40
2018-02-08T20:08:40.568Z,-2.40
2018-02-08T20:13:44.420Z,-2.40
2018-02-08T20:18:48.640Z,-2.40
2018-02-08T20:23:51.739Z,-2.40
2018-02-08T20:28:54.844Z,-2.40
2018-02-08T20:33:58.706Z,-2.30
2018-02-08T20:44:06.999Z,-2.50
2018-02-08T20:59:20.288Z,-2.50
2018-02-08T21:09:29.327Z,-2.70
2018-02-08T21:14:32.436Z,-2.70
2018-02-08T21:19:35.713Z,-2.80
2018-02-08T21:24:39.790Z,-2.90
2018-02-08T21:29:44.417Z,-2.90
2018-02-08T21:34:47.500Z,-2.90
2018-02-08T21:44:55.456Z,-3.00
2018-02-08T21:49:59.303Z,-3.00
2018-02-08T21:55:02.392Z,-3.00
2018-02-08T22:00:05.497Z,-3.00
2018-02-08T22:05:08.992Z,-3.00
2018-02-08T22:10:12.072Z,-3.10
2018-02-08T22:20:19.998Z,-3.20
2018-02-08T22:30:27.532Z,-3.20
2018-02-08T22:35:32.141Z,-3.30
2018-02-08T22:40:35.227Z,-3.30
2018-02-08T22:45:38.389Z,-3.50
2018-02-08T22:50:42.980Z,-3.60
2018-02-08T22:55:46.116Z,-3.60
2018-02-08T23:10:58.132Z,-3.50
2018-02-08T23:21:05.700Z,-3.60
2018-02-08T23:31:14.028Z,-3.60
2018-02-08T23:36:17.555Z,-3.60
2018-02-08T23:41:21.048Z,-3.70
2018-02-08T23:46:25.319Z,-3.70
2018-02-08T23:51:29.176Z,-3.70
2018-02-08T23:56:32.308Z,-3.70
